createdAt,value
2023-02-21T00:00:10.796Z,100461.59
2023-02-21T00:03:26.378Z,100483.75
2023-02-21T00:06:34.393Z,100473.03
2023-02-21T00:09:42.970Z,100476.44
2023-02-21T00:12:51.461Z,100474.22
2023-02-21T00:15:59.939Z,100471.28
2023-02-21T00:19:08.358Z,100471.44
2023-02-21T00:22:23.323Z,100472.66
2023-02-21T00:25:31.380Z,100470.44
2023-02-21T00:28:46.329Z,100470.56
2023-02-21T00:31:47.957Z,100460.87
2023-02-21T00:35:02.372Z,100482.03
2023-02-21T00:38:05.041Z,100459.19
2023-02-21T00:41:19.365Z,100478.63
2023-02-21T00:44:21.053Z,100478.41
2023-02-21T00:47:35.309Z,100470.78
2023-02-21T00:50:44.068Z,100470.56
2023-02-21T00:53:52.339Z,100474.03
2023-02-21T00:57:00.881Z,100469.97
2023-02-21T01:00:10.342Z,100456.12
2023-02-21T01:03:25.357Z,100445.50
2023-02-21T01:06:33.346Z,100455.81
2023-02-21T01:09:48.361Z,100452.25
2023-02-21T01:12:56.357Z,100442.03
2023-02-21T01:16:13.514Z,100449.72
2023-02-21T01:19:28.398Z,100451.59
2023-02-21T01:22:37.234Z,100459.78
2023-02-21T01:25:45.344Z,100437.09
2023-02-21T01:28:53.945Z,100445.88
2023-02-21T01:32:02.407Z,100450.19
2023-02-21T01:35:17.420Z,100459.78
2023-02-21T01:38:26.041Z,100447.59
2023-02-21T01:41:34.322Z,100450.34
2023-02-21T01:44:53.340Z,100465.16
2023-02-21T01:48:08.479Z,100457.19
2023-02-21T01:51:14.351Z,100453.59
2023-02-21T01:54:32.363Z,100434.03
2023-02-21T01:57:48.353Z,100433.37
2023-02-21T02:00:50.559Z,100420.75
2023-02-21T02:04:08.919Z,100420.25
2023-02-21T02:07:17.370Z,100401.81
2023-02-21T02:10:30.080Z,100424.66
2023-02-21T02:13:54.357Z,100427.28
2023-02-21T02:17:38.465Z,100400.06
2023-02-21T02:21:14.627Z,100429.16
2023-02-21T02:24:44.396Z,100397.31
2023-02-21T02:28:06.082Z,100425.50
2023-02-21T02:31:39.508Z,100432.56
2023-02-21T02:34:52.992Z,100423.13
2023-02-21T02:38:26.358Z,100423.37
2023-02-21T02:41:40.509Z,100412.59
2023-02-21T02:45:07.379Z,100420.56
2023-02-21T02:48:23.575Z,100404.78
2023-02-21T02:51:41.389Z,100403.75
2023-02-21T02:54:50.402Z,100406.37
2023-02-21T02:58:00.668Z,100387.72
2023-02-21T03:01:26.419Z,100403.25
2023-02-21T03:04:59.360Z,100400.81
2023-02-21T03:08:26.892Z,100413.31
2023-02-21T03:11:54.416Z,100400.31
2023-02-21T03:15:03.096Z,100397.94
2023-02-21T03:18:27.402Z,100404.19
2023-02-21T03:25:26.386Z,100386.47
2023-02-21T03:28:43.410Z,100409.28
2023-02-21T03:31:49.747Z,100399.37
2023-02-21T03:35:04.397Z,100405.63
2023-02-21T03:38:19.387Z,100404.00
2023-02-21T03:41:27.370Z,100413.13
2023-02-21T03:44:42.405Z,100420.72
2023-02-21T03:47:44.191Z,100421.66
2023-02-21T03:51:00.400Z,100424.19
2023-02-21T03:54:08.377Z,100421.59
2023-02-21T03:57:17.221Z,100419.53
2023-02-21T04:00:26.445Z,100416.28
2023-02-21T04:03:41.385Z,100423.63
2023-02-21T04:06:49.409Z,100412.59
2023-02-21T04:09:58.174Z,100366.75
2023-02-21T04:13:06.423Z,100416.28
2023-02-21T04:16:22.421Z,100418.88
2023-02-21T04:19:37.432Z,100412.44
2023-02-21T04:22:54.482Z,100415.78
2023-02-21T04:26:09.385Z,100413.06
2023-02-21T04:29:17.929Z,100393.13
2023-02-21T04:32:32.529Z,100404.53
2023-02-21T04:35:40.891Z,100397.03
2023-02-21T04:38:55.427Z,100399.28
2023-02-21T04:42:10.381Z,100406.09
2023-02-21T04:45:18.454Z,100391.75
2023-02-21T04:48:33.395Z,100412.66
2023-02-21T04:51:35.262Z,100425.88
2023-02-21T05:02:38.395Z,100415.22
2023-02-21T05:05:53.405Z,100419.72
2023-02-21T05:09:02.083Z,100394.62
2023-02-21T05:12:16.471Z,100411.84
2023-02-21T05:15:18.246Z,100404.56
2023-02-21T05:18:32.449Z,100408.22
2023-02-21T05:21:40.983Z,100402.09
2023-02-21T05:24:49.480Z,100409.87
2023-02-21T05:28:04.435Z,100413.31
2023-02-21T05:31:13.636Z,100416.87
2023-02-21T05:34:28.441Z,100412.69
2023-02-21T05:37:31.426Z,100405.72
2023-02-21T05:40:48.449Z,100397.31
2023-02-21T05:47:48.393Z,100395.97
2023-02-21T05:51:22.411Z,100400.56
2023-02-21T05:54:31.261Z,100399.50
2023-02-21T05:57:44.527Z,100403.22
2023-02-21T06:00:53.778Z,100396.31
2023-02-21T06:04:08.440Z,100390.16
2023-02-21T06:07:16.994Z,100412.88
2023-02-21T06:10:31.473Z,100416.28
2023-02-21T06:13:39.446Z,100338.63
2023-02-21T06:16:55.468Z,100414.28
2023-02-21T06:20:03.560Z,100430.16
2023-02-21T06:23:19.497Z,100407.41
2023-02-21T06:26:28.420Z,100382.81
2023-02-21T06:29:43.445Z,100410.78
2023-02-21T06:32:51.413Z,100383.91
2023-02-21T06:36:12.421Z,100410.03
2023-02-21T06:39:22.118Z,100402.41
2023-02-21T07:09:23.918Z,100435.66
2023-02-21T07:13:11.470Z,100461.19
2023-02-21T07:20:18.487Z,100447.19
2023-02-21T07:35:42.621Z,100459.88
2023-02-21T07:43:21.488Z,100465.69
2023-02-21T07:54:24.482Z,100449.00
2023-02-21T08:05:44.429Z,100439.88
2023-02-21T08:12:31.571Z,100447.16
2023-02-21T08:15:39.617Z,100459.88
2023-02-21T08:19:30.536Z,100303.97
2023-02-21T08:26:39.686Z,100467.56
2023-02-21T08:29:51.658Z,100420.69
2023-02-21T08:33:08.907Z,100381.06
2023-02-21T08:40:31.231Z,100299.66
2023-02-21T08:55:16.501Z,100454.47
2023-02-21T08:58:25.476Z,100235.69
2023-02-21T09:01:50.553Z,100433.97
2023-02-21T09:05:14.652Z,100424.69
2023-02-21T09:08:35.579Z,100434.22
2023-02-21T09:11:44.666Z,100445.28
2023-02-21T09:14:53.597Z,100447.34
2023-02-21T09:18:02.045Z,100423.63
2023-02-21T09:22:01.890Z,100440.87
2023-02-21T09:25:53.222Z,100326.03
2023-02-21T09:29:46.227Z,100442.41
2023-02-21T09:33:08.202Z,100437.63
2023-02-21T09:36:42.523Z,100327.41
2023-02-21T09:43:37.595Z,100443.44
2023-02-21T09:47:04.339Z,100443.03
2023-02-21T09:55:04.568Z,100431.56
2023-02-21T09:58:22.489Z,100449.09
2023-02-21T10:01:46.932Z,100452.03
2023-02-21T10:05:22.863Z,100455.47
2023-02-21T10:08:51.815Z,100453.87
2023-02-21T10:20:09.466Z,100449.03
2023-02-21T10:31:56.600Z,100431.47
2023-02-21T10:43:43.332Z,100439.38
2023-02-21T10:47:23.630Z,100439.12
2023-02-21T10:51:10.731Z,100427.25
2023-02-21T10:54:23.455Z,100414.31
2023-02-21T10:57:34.527Z,100429.94
2023-02-21T11:00:53.581Z,100432.00
2023-02-21T11:04:13.511Z,100426.56
2023-02-21T11:11:47.785Z,100422.84
2023-02-21T11:15:17.426Z,100350.66
2023-02-21T11:22:47.578Z,100415.09
2023-02-21T11:26:07.391Z,100354.28
2023-02-21T11:29:29.037Z,100320.31
2023-02-21T11:45:10.762Z,100399.09
2023-02-21T11:48:20.322Z,100321.78
2023-02-21T11:55:56.523Z,100397.88
2023-02-21T11:59:57.679Z,100398.88
2023-02-21T12:11:39.057Z,100391.91
2023-02-21T12:15:20.607Z,100399.56
2023-02-21T12:18:45.520Z,100390.25
2023-02-21T12:22:21.522Z,100398.06
2023-02-21T12:33:39.599Z,100395.16
2023-02-21T12:41:21.565Z,100407.59
2023-02-21T12:44:42.373Z,100383.88
2023-02-21T12:48:05.692Z,100401.88
2023-02-21T12:51:54.740Z,100398.75
2023-02-21T12:55:12.717Z,100407.59
2023-02-21T12:58:36.715Z,100369.53
2023-02-21T13:01:50.500Z,100403.41
2023-02-21T13:05:06.585Z,100405.38
2023-02-21T13:08:22.591Z,100386.41
2023-02-21T13:11:48.313Z,100406.63
2023-02-21T13:15:02.537Z,100410.88
2023-02-21T13:18:26.708Z,100403.28
2023-02-21T13:22:11.822Z,100403.22
2023-02-21T13:25:47.953Z,100387.69
2023-02-21T13:29:33.303Z,100388.25
2023-02-21T13:33:31.652Z,100250.06
2023-02-21T13:37:01.734Z,100390.25
2023-02-21T13:40:53.903Z,100390.13
2023-02-21T13:44:14.573Z,100391.97
2023-02-21T13:47:26.388Z,100374.91
2023-02-21T13:58:44.848Z,100396.53
2023-02-21T14:02:23.682Z,100359.75
2023-02-21T14:06:18.674Z,100395.25
2023-02-21T14:13:59.461Z,100388.78
2023-02-21T14:17:21.006Z,100388.47
2023-02-21T14:20:26.183Z,100373.91
2023-02-21T14:23:56.800Z,100370.41
2023-02-21T14:27:41.713Z,100277.66
2023-02-21T14:35:44.823Z,100401.91
2023-02-21T14:39:14.592Z,100303.25
2023-02-21T14:42:44.898Z,100400.13
2023-02-21T14:46:29.631Z,100399.19
2023-02-21T14:53:56.602Z,100392.53
2023-02-21T14:57:31.594Z,100397.06
2023-02-21T15:01:10.623Z,100395.38
2023-02-21T15:04:37.558Z,100390.75
2023-02-21T15:08:18.627Z,100388.22
2023-02-21T15:11:31.970Z,100390.72
2023-02-21T15:14:54.691Z,100390.28
2023-02-21T15:18:08.620Z,100391.75
2023-02-21T15:21:31.650Z,100405.06
2023-02-21T15:24:46.577Z,100204.62
2023-02-21T15:28:02.197Z,100398.59
2023-02-21T15:31:15.000Z,100407.81
2023-02-21T15:34:41.525Z,100405.44
2023-02-21T15:37:57.650Z,100411.53
2023-02-21T15:41:52.859Z,100393.13
2023-02-21T15:45:30.817Z,100401.12
2023-02-21T15:49:02.609Z,100409.28
2023-02-21T16:00:32.748Z,100411.13
2023-02-21T16:03:56.578Z,100227.66
2023-02-21T16:07:22.330Z,100412.16
2023-02-21T16:10:28.577Z,100419.31
2023-02-21T16:17:45.117Z,100428.59
2023-02-21T16:21:08.609Z,100419.22
2023-02-21T16:24:27.776Z,100364.12
2023-02-21T16:27:50.990Z,100423.28
2023-02-21T16:31:03.705Z,100372.13
2023-02-21T16:41:49.670Z,100421.06
2023-02-21T17:11:29.602Z,100467.31
2023-02-21T17:19:47.057Z,100474.44
2023-02-21T17:31:00.079Z,100465.75
2023-02-21T17:52:22.667Z,100467.31
2023-02-21T17:55:31.394Z,100471.72
2023-02-21T17:58:39.634Z,100476.19
2023-02-21T18:06:24.688Z,100485.25
2023-02-21T18:13:20.666Z,100442.31
2023-02-21T18:16:29.515Z,100452.03
2023-02-21T18:19:40.222Z,100441.47
2023-02-21T18:27:28.735Z,100461.38
2023-02-21T18:30:37.850Z,100446.97
2023-02-21T18:34:07.737Z,100427.53
2023-02-21T18:37:16.620Z,100464.59
2023-02-21T18:40:27.099Z,100455.88
2023-02-21T19:10:27.734Z,100460.84
2023-02-21T19:13:49.737Z,100458.53
2023-02-21T19:17:07.458Z,100460.31
2023-02-21T19:20:12.146Z,100465.94
2023-02-21T19:27:34.705Z,100435.22
2023-02-21T19:31:03.674Z,100424.06
2023-02-21T19:34:22.689Z,100460.75
2023-02-21T19:37:56.630Z,100377.22
2023-02-21T19:41:05.685Z,100451.22
2023-02-21T19:44:55.702Z,100452.38
2023-02-21T19:48:04.510Z,100476.28
2023-02-21T19:54:40.522Z,100446.41
2023-02-21T19:57:58.900Z,100467.97
2023-02-21T20:01:43.881Z,100451.81
2023-02-21T20:05:10.505Z,100461.63
2023-02-21T20:12:16.682Z,100474.63
2023-02-21T20:19:30.752Z,100487.47
2023-02-21T20:30:17.818Z,100485.63
2023-02-21T20:42:29.775Z,100493.38
2023-02-21T20:45:44.782Z,100494.09
2023-02-21T20:49:22.008Z,100490.81
2023-02-21T21:00:30.693Z,100521.47
2023-02-21T21:03:39.849Z,100514.47
2023-02-21T21:06:48.650Z,100479.12
2023-02-21T21:09:57.722Z,100499.66
2023-02-21T21:13:06.681Z,100512.06
2023-02-21T21:16:15.618Z,100466.09
2023-02-21T21:19:35.717Z,100520.50
2023-02-21T21:22:37.614Z,100507.56
2023-02-21T21:25:52.721Z,100491.28
2023-02-21T21:29:07.688Z,100468.63
2023-02-21T21:32:13.684Z,100463.22
2023-02-21T21:35:28.698Z,100525.50
2023-02-21T21:38:43.710Z,100522.03
2023-02-21T21:42:01.417Z,100524.13
2023-02-21T21:45:12.690Z,100520.12
2023-02-21T21:48:21.577Z,100526.78
2023-02-21T21:55:55.778Z,100496.31
2023-02-21T22:02:26.804Z,100538.31
2023-02-21T22:05:38.768Z,100532.31
2023-02-21T22:08:53.772Z,100533.06
2023-02-21T22:11:55.700Z,100530.69
2023-02-21T22:15:13.707Z,100485.25
2023-02-21T22:21:49.834Z,100534.28
2023-02-21T22:55:36.695Z,100535.78
2023-02-21T22:58:46.129Z,100530.62
2023-02-21T23:02:29.302Z,100515.16
2023-02-21T23:06:26.597Z,100529.88
2023-02-21T23:10:10.150Z,100524.31
2023-02-21T23:14:07.817Z,100520.97
2023-02-21T23:17:56.741Z,100525.31
2023-02-21T23:26:40.066Z,100546.72
2023-02-21T23:30:16.432Z,100526.44
2023-02-21T23:33:51.746Z,100527.66
2023-02-21T23:37:23.490Z,100524.03
2023-02-21T23:45:07.459Z,100517.16
2023-02-21T23:48:39.528Z,100503.16
2023-02-21T23:51:53.765Z,100501.37
2023-02-21T23:55:03.756Z,100516.09
2023-02-21T23:58:40.850Z,100479.38
